createdAt,value
2023-01-23T00:01:32.858Z,99847.38
2023-01-23T00:04:00.966Z,99831.44
2023-01-23T00:06:28.816Z,99847.28
2023-01-23T00:08:59.254Z,99842.28
2023-01-23T00:11:28.740Z,99862.91
2023-01-23T00:13:56.728Z,99863.56
2023-01-23T00:16:25.732Z,99861.66
2023-01-23T00:18:53.221Z,99862.19
2023-01-23T00:21:22.751Z,99875.28
2023-01-23T00:23:53.155Z,99878.66
2023-01-23T00:26:25.663Z,99885.69
2023-01-23T00:28:53.520Z,99882.50
2023-01-23T00:31:28.217Z,99890.84
2023-01-23T00:33:58.505Z,99900.81
2023-01-23T00:36:29.411Z,99898.28
2023-01-23T00:38:57.285Z,99902.53
2023-01-23T00:41:25.048Z,99886.47
2023-01-23T00:43:52.503Z,99908.94
2023-01-23T00:46:23.469Z,99889.25
2023-01-23T00:48:51.232Z,99909.56
2023-01-23T00:51:18.279Z,99910.13
2023-01-23T00:53:45.499Z,99923.94
2023-01-23T00:56:12.649Z,99921.94
2023-01-23T00:58:40.850Z,99913.50
2023-01-23T01:01:08.715Z,99910.13
2023-01-23T01:03:36.152Z,99909.97
2023-01-23T01:06:03.689Z,99913.72
2023-01-23T01:08:30.876Z,99917.44
2023-01-23T01:10:58.037Z,99905.75
2023-01-23T01:13:25.356Z,99901.91
2023-01-23T01:15:53.178Z,99899.97
2023-01-23T01:18:22.173Z,99908.72
2023-01-23T01:20:49.925Z,99911.06
2023-01-23T01:23:17.276Z,99902.31
2023-01-23T01:25:44.276Z,99917.34
2023-01-23T01:28:11.223Z,99916.38
2023-01-23T01:30:38.238Z,99915.53
2023-01-23T01:33:05.292Z,99916.25
2023-01-23T01:35:32.782Z,99902.09
2023-01-23T01:37:59.930Z,99903.59
2023-01-23T01:40:32.164Z,99915.31
2023-01-23T01:43:02.125Z,99915.44
2023-01-23T01:46:08.678Z,99911.91
2023-01-23T01:48:42.775Z,99877.22
2023-01-23T01:51:41.970Z,99920.31
2023-01-23T01:54:08.897Z,99928.75
2023-01-23T01:56:42.172Z,99930.44
2023-01-23T01:59:11.991Z,99935.56
2023-01-23T02:01:41.773Z,99936.50
2023-01-23T02:04:10.074Z,99939.41
2023-01-23T02:06:37.118Z,99931.41
2023-01-23T02:09:32.359Z,99941.06
2023-01-23T02:12:18.638Z,99931.28
2023-01-23T02:15:04.466Z,99929.38
2023-01-23T02:17:51.000Z,99928.53
2023-01-23T02:20:40.134Z,99944.28
2023-01-23T02:23:58.349Z,99921.50
2023-01-23T02:26:33.092Z,99946.63
2023-01-23T02:29:00.327Z,99951.84
2023-01-23T02:31:27.682Z,99952.56
2023-01-23T02:33:59.648Z,99953.66
2023-01-23T02:36:30.011Z,99944.72
2023-01-23T02:39:09.510Z,99950.03
2023-01-23T02:41:48.101Z,99959.06
2023-01-23T02:44:28.301Z,99949.59
2023-01-23T02:46:57.316Z,99957.16
2023-01-23T02:49:24.508Z,99960.47
2023-01-23T02:51:54.465Z,99956.09
2023-01-23T02:54:22.733Z,99946.84
2023-01-23T02:56:49.728Z,99952.78
2023-01-23T02:59:35.301Z,99953.66
2023-01-23T03:02:02.385Z,99963.66
2023-01-23T03:04:29.353Z,99960.25
2023-01-23T03:06:56.339Z,99975.38
2023-01-23T03:09:23.454Z,99966.53
2023-01-23T03:11:50.974Z,99970.03
2023-01-23T03:14:20.222Z,99961.31
2023-01-23T03:16:51.638Z,99962.72
2023-01-23T03:19:24.058Z,99931.69
2023-01-23T03:21:51.738Z,99959.16
2023-01-23T03:24:19.692Z,99969.00
2023-01-23T03:26:48.697Z,99969.81
2023-01-23T03:29:43.029Z,99963.34
2023-01-23T03:32:11.671Z,99963.03
2023-01-23T03:34:39.158Z,99963.66
2023-01-23T03:37:08.147Z,99978.78
2023-01-23T03:39:54.016Z,99976.75
2023-01-23T03:42:21.673Z,99970.69
2023-01-23T03:44:49.107Z,99976.44
2023-01-23T03:47:15.995Z,99981.66
2023-01-23T03:49:42.997Z,99947.16
2023-01-23T03:52:10.143Z,99972.91
2023-01-23T03:54:37.357Z,99973.69
2023-01-23T03:57:04.434Z,99972.69
2023-01-23T03:59:31.396Z,99977.06
2023-01-23T04:01:58.413Z,99982.06
2023-01-23T04:04:25.308Z,99978.56
2023-01-23T04:06:52.242Z,99950.47
2023-01-23T04:09:19.230Z,99966.00
2023-01-23T04:11:46.210Z,99961.31
2023-01-23T04:14:13.143Z,99969.81
2023-01-23T04:16:40.079Z,99974.09
2023-01-23T04:19:07.014Z,99974.72
2023-01-23T04:21:33.934Z,99984.19
2023-01-23T04:24:00.811Z,99966.66
2023-01-23T04:26:30.007Z,99981.13
2023-01-23T04:28:56.916Z,99982.84
2023-01-23T04:31:23.963Z,99993.25
2023-01-23T04:33:50.899Z,100002.97
2023-01-23T04:36:17.981Z,99984.19
2023-01-23T04:38:44.938Z,100004.13
2023-01-23T04:41:20.631Z,100007.53
2023-01-23T04:43:47.730Z,100010.97
2023-01-23T04:46:14.928Z,99981.44
2023-01-23T04:48:42.167Z,100008.94
2023-01-23T04:51:09.477Z,100019.03
2023-01-23T04:53:36.576Z,100023.19
2023-01-23T04:56:04.432Z,100025.09
2023-01-23T04:58:31.549Z,100024.13
2023-01-23T05:01:06.159Z,100020.53
2023-01-23T05:03:33.277Z,100032.66
2023-01-23T05:06:00.173Z,100029.28
2023-01-23T05:08:27.063Z,100019.34
2023-01-23T05:10:54.099Z,100035.97
2023-01-23T05:13:20.989Z,100046.53
2023-01-23T05:15:48.021Z,100015.41
2023-01-23T05:18:14.931Z,100044.81
2023-01-23T05:20:41.867Z,100042.16
2023-01-23T05:23:09.153Z,100047.25
2023-01-23T05:25:36.091Z,100037.38
2023-01-23T05:28:03.107Z,100033.75
2023-01-23T05:30:30.152Z,100031.09
2023-01-23T05:32:57.055Z,100030.31
2023-01-23T05:35:24.137Z,100023.28
2023-01-23T05:37:52.004Z,100029.28
2023-01-23T05:40:20.304Z,100030.94
2023-01-23T05:42:48.353Z,100038.84
2023-01-23T05:45:17.687Z,100039.06
2023-01-23T05:47:44.710Z,100051.22
2023-01-23T05:50:19.092Z,100051.31
2023-01-23T05:52:46.772Z,100045.13
2023-01-23T05:55:13.949Z,100047.38
2023-01-23T05:57:41.189Z,100052.25
2023-01-23T06:00:13.110Z,100044.16
2023-01-23T06:02:40.508Z,100045.97
2023-01-23T06:05:07.797Z,100053.97
2023-01-23T06:07:34.765Z,100056.41
2023-01-23T06:10:01.684Z,100065.78
2023-01-23T06:12:28.596Z,100066.34
2023-01-23T06:14:55.512Z,100069.53
2023-01-23T06:17:22.487Z,100073.16
2023-01-23T06:19:49.667Z,100074.41
2023-01-23T06:22:16.602Z,100071.66
2023-01-23T06:24:43.536Z,100080.19
2023-01-23T06:27:10.930Z,100092.53
2023-01-23T06:29:39.711Z,100091.25
2023-01-23T06:32:06.707Z,100105.94
2023-01-23T06:34:33.750Z,100109.16
2023-01-23T06:37:00.697Z,100103.59
2023-01-23T06:39:27.672Z,100116.50
2023-01-23T06:41:54.993Z,100112.78
2023-01-23T06:44:21.951Z,100115.34
2023-01-23T06:46:48.854Z,100126.00
2023-01-23T06:49:15.931Z,100127.50
2023-01-23T06:51:42.901Z,100122.81
2023-01-23T06:54:09.842Z,100122.81
2023-01-23T06:56:36.748Z,100128.03
2023-01-23T06:59:03.663Z,100116.84
2023-01-23T07:01:31.677Z,100119.28
2023-01-23T07:03:58.581Z,100114.72
2023-01-23T07:06:25.485Z,100128.88
2023-01-23T07:08:52.447Z,100114.03
2023-01-23T07:11:19.786Z,100135.81
2023-01-23T07:13:46.689Z,100136.16
2023-01-23T07:16:13.921Z,100138.72
2023-01-23T07:18:40.854Z,100134.34
2023-01-23T07:21:08.003Z,100138.59
2023-01-23T07:23:35.194Z,100142.25
2023-01-23T07:26:04.144Z,100137.53
2023-01-23T07:28:31.520Z,100147.78
2023-01-23T07:30:59.815Z,100153.75
2023-01-23T07:33:27.086Z,100124.94
2023-01-23T07:35:54.456Z,100148.31
2023-01-23T07:38:23.637Z,100145.00
2023-01-23T07:40:51.439Z,100145.22
2023-01-23T07:43:18.763Z,100154.16
2023-01-23T07:45:45.818Z,100141.78
2023-01-23T07:48:12.880Z,100149.16
2023-01-23T07:50:39.920Z,100155.25
2023-01-23T07:53:07.470Z,100162.94
2023-01-23T07:55:35.252Z,100167.19
2023-01-23T07:58:02.154Z,100150.66
2023-01-23T08:00:30.499Z,100166.56
2023-01-23T08:02:58.020Z,100164.84
2023-01-23T08:05:25.235Z,100169.75
2023-01-23T08:08:00.656Z,100161.75
2023-01-23T08:10:35.519Z,100169.97
2023-01-23T08:13:02.429Z,100161.34
2023-01-23T08:15:29.887Z,100145.66
2023-01-23T08:17:56.968Z,100166.75
2023-01-23T08:20:23.911Z,100179.47
2023-01-23T08:22:50.879Z,100178.72
2023-01-23T08:25:17.852Z,100181.72
2023-01-23T08:27:44.770Z,100185.09
2023-01-23T08:30:12.100Z,100181.72
2023-01-23T08:32:39.555Z,100182.22
2023-01-23T08:35:06.832Z,100193.53
2023-01-23T08:37:34.637Z,100186.84
2023-01-23T08:40:01.570Z,100183.00
2023-01-23T08:42:28.598Z,100184.91
2023-01-23T08:44:56.049Z,100190.13
2023-01-23T08:47:23.040Z,100192.59
2023-01-23T08:49:50.011Z,100190.44
2023-01-23T08:52:16.974Z,100196.41
2023-01-23T08:54:44.006Z,100189.56
2023-01-23T08:57:10.927Z,100192.66
2023-01-23T08:59:37.847Z,100188.50
2023-01-23T09:02:07.685Z,100183.88
2023-01-23T09:04:37.108Z,100186.78
2023-01-23T09:07:04.232Z,100195.06
2023-01-23T09:09:31.168Z,100179.72
2023-01-23T09:11:58.085Z,100191.13
2023-01-23T09:14:25.014Z,100196.22
2023-01-23T09:16:52.102Z,100200.91
2023-01-23T09:19:19.103Z,100193.59
2023-01-23T09:21:45.975Z,100192.19
2023-01-23T09:24:12.928Z,100187.03
2023-01-23T09:26:40.456Z,100183.97
2023-01-23T09:29:07.425Z,100199.22
2023-01-23T09:31:34.359Z,100196.47
2023-01-23T09:34:03.589Z,100183.34
2023-01-23T09:36:42.015Z,100193.66
2023-01-23T09:39:09.625Z,100189.50
2023-01-23T09:41:36.593Z,100193.66
2023-01-23T09:44:13.169Z,100186.34
2023-01-23T09:46:47.155Z,100193.81
2023-01-23T09:49:26.786Z,100192.66
2023-01-23T09:52:08.044Z,100192.31
2023-01-23T09:54:41.052Z,100194.88
2023-01-23T09:57:17.296Z,100188.81
2023-01-23T10:00:00.308Z,100191.97
2023-01-23T10:02:28.385Z,100190.47
2023-01-23T10:04:58.354Z,100194.22
2023-01-23T10:07:28.309Z,100190.31
2023-01-23T10:10:43.126Z,100197.47
2023-01-23T10:13:32.504Z,100193.69
2023-01-23T10:16:11.513Z,100186.03
2023-01-23T10:18:46.666Z,100187.72
2023-01-23T10:21:29.598Z,100200.19
2023-01-23T10:24:15.043Z,100200.47
2023-01-23T10:26:48.365Z,100193.94
2023-01-23T10:29:29.022Z,100189.81
2023-01-23T10:31:58.918Z,100194.31
2023-01-23T10:34:41.477Z,100190.69
2023-01-23T10:37:15.853Z,100185.00
2023-01-23T10:40:12.385Z,100186.81
2023-01-23T10:42:39.286Z,100183.63
2023-01-23T10:45:07.322Z,100178.25
2023-01-23T10:47:46.316Z,100182.84
2023-01-23T10:50:15.704Z,100168.47
2023-01-23T10:52:47.426Z,100166.72
2023-01-23T10:55:20.624Z,100174.16
2023-01-23T10:57:53.180Z,100172.72
2023-01-23T11:00:44.929Z,100178.53
2023-01-23T11:03:20.988Z,100176.13
2023-01-23T11:06:07.938Z,100168.22
2023-01-23T11:08:39.970Z,100165.97
2023-01-23T11:11:15.978Z,100159.41
2023-01-23T11:13:45.798Z,100143.41
2023-01-23T11:16:30.957Z,100144.78
2023-01-23T11:19:06.073Z,100148.09
2023-01-23T11:21:52.599Z,100146.25
2023-01-23T11:24:38.436Z,100145.72
2023-01-23T11:27:15.751Z,100150.00
2023-01-23T11:29:54.831Z,100143.13
2023-01-23T11:32:24.730Z,100110.88
2023-01-23T11:35:03.610Z,100131.81
2023-01-23T11:37:40.370Z,100138.28
2023-01-23T11:40:16.400Z,100132.50
2023-01-23T11:42:44.409Z,100131.03
2023-01-23T11:45:52.587Z,100138.34
2023-01-23T11:48:32.303Z,100145.78
2023-01-23T11:51:26.120Z,100132.66
2023-01-23T11:54:11.593Z,100119.84
2023-01-23T11:56:50.698Z,100124.81
2023-01-23T11:59:55.204Z,100121.75
2023-01-23T12:02:42.347Z,100117.91
2023-01-23T12:05:09.609Z,100117.69
2023-01-23T12:08:15.009Z,100104.69
2023-01-23T12:10:50.261Z,100106.41
2023-01-23T12:13:24.485Z,100109.97
2023-01-23T12:16:38.941Z,100116.25
2023-01-23T12:19:41.049Z,100114.34
2023-01-23T12:22:31.896Z,100107.00
2023-01-23T12:25:23.440Z,100107.50
2023-01-23T12:27:59.708Z,100100.69
2023-01-23T12:30:39.254Z,100103.50
2023-01-23T12:33:06.084Z,100106.44
2023-01-23T12:35:57.092Z,100109.25
2023-01-23T12:38:51.280Z,100112.03
2023-01-23T12:41:38.805Z,100114.81
2023-01-23T12:44:12.167Z,100118.06
2023-01-23T12:47:01.164Z,100103.38
2023-01-23T12:50:07.922Z,100115.41
2023-01-23T12:52:49.463Z,100112.00
2023-01-23T12:55:36.230Z,100121.59
2023-01-23T12:58:09.455Z,100125.19
2023-01-23T13:01:04.192Z,100123.38
2023-01-23T13:04:16.295Z,100129.28
2023-01-23T13:07:10.653Z,100124.47
2023-01-23T13:09:47.359Z,100123.63
2023-01-23T13:12:25.631Z,100120.53
2023-01-23T13:15:14.837Z,100127.53
2023-01-23T13:17:41.872Z,100120.63
2023-01-23T13:20:36.454Z,100127.25
2023-01-23T13:23:33.291Z,100127.53
2023-01-23T13:26:15.677Z,100130.34
2023-01-23T13:28:46.605Z,100136.03
2023-01-23T13:31:32.269Z,100134.59
2023-01-23T13:34:14.204Z,100126.72
2023-01-23T13:36:50.243Z,100125.31
2023-01-23T13:39:17.173Z,100132.84
2023-01-23T13:41:52.237Z,100132.50
2023-01-23T13:44:41.944Z,100125.81
2023-01-23T14:22:31.297Z,100144.47
2023-01-23T14:24:59.279Z,100154.13
2023-01-23T14:27:44.500Z,100151.78
2023-01-23T14:30:24.128Z,100155.22
2023-01-23T14:32:51.052Z,100162.91
2023-01-23T14:35:23.519Z,100150.31
2023-01-23T14:37:51.262Z,100164.41
2023-01-23T14:40:27.238Z,100167.06
2023-01-23T14:43:01.177Z,100164.41
2023-01-23T14:45:33.616Z,100162.91
2023-01-23T14:48:06.967Z,100157.78
2023-01-23T14:50:34.728Z,100151.84
2023-01-23T14:53:14.207Z,100157.81
2023-01-23T14:55:43.198Z,100160.69
2023-01-23T14:58:22.951Z,100156.31
2023-01-23T15:00:50.623Z,100082.53
2023-01-23T15:03:35.954Z,100158.88
2023-01-23T15:06:08.699Z,100121.34
2023-01-23T15:08:37.041Z,100161.22
2023-01-23T15:11:06.777Z,100156.13
2023-01-23T15:13:55.524Z,100163.78
2023-01-23T15:16:24.985Z,100153.88
2023-01-23T15:19:00.819Z,100159.22
2023-01-23T15:21:34.721Z,100161.34
2023-01-23T15:24:13.867Z,100159.72
2023-01-23T15:27:04.978Z,100159.94
2023-01-23T15:29:33.207Z,100147.16
2023-01-23T15:32:01.561Z,100162.94
2023-01-23T15:34:33.076Z,100162.31
2023-01-23T15:37:11.730Z,100168.25
2023-01-23T15:39:49.505Z,100167.00
2023-01-23T15:42:16.372Z,100168.34
2023-01-23T15:44:43.929Z,100158.88
2023-01-23T15:47:11.186Z,100166.31
2023-01-23T15:49:40.655Z,100176.81
2023-01-23T15:52:45.743Z,100174.22
2023-01-23T15:55:13.542Z,100164.66
2023-01-23T15:57:42.029Z,100165.59
2023-01-23T16:00:17.526Z,100171.88
2023-01-23T16:02:55.610Z,100149.38
2023-01-23T16:05:25.917Z,100176.34
2023-01-23T16:07:53.916Z,100174.84
2023-01-23T16:10:26.825Z,100172.19
2023-01-23T16:12:55.877Z,100173.69
2023-01-23T16:15:25.719Z,100181.81
2023-01-23T16:17:53.418Z,100155.78
2023-01-23T16:20:27.589Z,100174.75
2023-01-23T16:23:11.625Z,100172.97
2023-01-23T16:25:44.866Z,100181.69
2023-01-23T16:28:20.759Z,100181.69
2023-01-23T16:30:48.925Z,100137.75
2023-01-23T16:33:16.315Z,100186.16
2023-01-23T16:35:44.299Z,100188.19
2023-01-23T16:38:26.751Z,100190.13
2023-01-23T16:40:55.206Z,100194.69
2023-01-23T16:43:23.368Z,100184.66
2023-01-23T16:45:54.991Z,100191.69
2023-01-23T16:48:27.125Z,100194.47
2023-01-23T16:51:01.045Z,100186.03
2023-01-23T16:53:40.647Z,100205.66
2023-01-23T16:56:14.814Z,100211.94
2023-01-23T16:58:42.311Z,100209.81
2023-01-23T17:01:16.346Z,100211.44
2023-01-23T17:03:44.712Z,100219.13
2023-01-23T17:06:16.268Z,100186.53
2023-01-23T17:08:44.321Z,100215.59
2023-01-23T17:11:19.005Z,100211.84
2023-01-23T17:13:46.050Z,100211.53
2023-01-23T17:16:26.513Z,100210.78
2023-01-23T17:18:55.065Z,100209.81
2023-01-23T17:21:25.340Z,100205.34
2023-01-23T17:23:52.658Z,100210.38
2023-01-23T17:26:21.173Z,100206.97
2023-01-23T17:28:48.457Z,100199.94
2023-01-23T17:31:27.890Z,100196.41
2023-01-23T17:33:55.981Z,100211.13
2023-01-23T17:36:25.347Z,100218.78
2023-01-23T17:38:55.113Z,100198.53
2023-01-23T17:41:21.991Z,100211.84
2023-01-23T17:43:48.934Z,100213.66
2023-01-23T17:46:27.445Z,100215.38
2023-01-23T17:48:57.014Z,100215.38
2023-01-23T17:51:26.180Z,100212.94
2023-01-23T17:53:53.492Z,100224.31
2023-01-23T17:56:20.445Z,100222.41
2023-01-23T17:58:47.334Z,100216.09
2023-01-23T18:01:25.775Z,100229.00
2023-01-23T18:03:53.417Z,100225.50
2023-01-23T18:06:20.639Z,100224.53
2023-01-23T18:08:47.612Z,100215.03
2023-01-23T18:11:33.556Z,100215.69
2023-01-23T18:14:30.104Z,100236.38
2023-01-23T18:16:57.261Z,100231.28
2023-01-23T18:19:26.239Z,100226.78
2023-01-23T18:21:55.392Z,100222.59
2023-01-23T18:24:31.212Z,100231.38
2023-01-23T18:27:18.135Z,100217.19
2023-01-23T18:30:03.786Z,100225.63
2023-01-23T18:32:52.085Z,100210.91
2023-01-23T18:35:24.849Z,100219.22
2023-01-23T18:38:05.237Z,100187.41
2023-01-23T18:41:06.046Z,100222.97
2023-01-23T18:43:39.238Z,100223.69
2023-01-23T18:46:14.285Z,100223.06
2023-01-23T18:48:43.439Z,100220.09
2023-01-23T18:51:22.370Z,100218.38
2023-01-23T18:54:14.127Z,100218.38
2023-01-23T18:56:59.461Z,100211.44
2023-01-23T19:00:06.265Z,100223.91
2023-01-23T19:02:47.836Z,100230.75
2023-01-23T19:05:16.104Z,100229.34
2023-01-23T19:07:45.883Z,100225.19
2023-01-23T19:10:18.943Z,100234.75
2023-01-23T19:13:10.701Z,100234.97
2023-01-23T19:15:49.642Z,100229.44
2023-01-23T19:18:38.562Z,100230.41
2023-01-23T19:21:12.460Z,100233.94
2023-01-23T19:23:42.806Z,100229.44
2023-01-23T19:26:15.264Z,100234.56
2023-01-23T19:28:42.710Z,100227.53
2023-01-23T19:31:33.984Z,100237.97
2023-01-23T19:34:02.587Z,100229.03
2023-01-23T19:36:32.773Z,100224.88
2023-01-23T19:39:02.863Z,100232.47
2023-01-23T19:41:36.802Z,100229.25
2023-01-23T19:44:03.764Z,100234.38
2023-01-23T19:46:32.981Z,100204.78
2023-01-23T19:49:02.911Z,100226.38
2023-01-23T19:51:31.160Z,100221.88
2023-01-23T19:53:58.112Z,100224.34
2023-01-23T19:56:25.245Z,100214.00
2023-01-23T19:58:52.119Z,100226.69
2023-01-23T20:01:34.660Z,100234.59
2023-01-23T20:04:03.971Z,100223.28
2023-01-23T20:06:31.208Z,100186.91
2023-01-23T20:08:58.174Z,100217.81
2023-01-23T20:11:25.176Z,100230.53
2023-01-23T20:13:52.043Z,100231.69
2023-01-23T20:16:21.787Z,100238.84
2023-01-23T20:18:49.917Z,100249.19
2023-01-23T20:21:21.660Z,100243.19
2023-01-23T20:23:49.113Z,100231.69
2023-01-23T20:26:18.404Z,100211.50
2023-01-23T20:28:54.279Z,100246.28
2023-01-23T20:31:22.432Z,100238.50
2023-01-23T20:33:50.810Z,100246.97
2023-01-23T20:36:18.022Z,100253.97
2023-01-23T20:38:45.358Z,100257.72
2023-01-23T20:41:18.987Z,100254.72
2023-01-23T20:43:46.541Z,100251.84
2023-01-23T20:46:15.272Z,100255.16
2023-01-23T20:48:45.044Z,100258.69
2023-01-23T20:51:15.764Z,100244.81
2023-01-23T20:53:43.358Z,100217.91
2023-01-23T20:56:10.267Z,100254.31
2023-01-23T20:58:58.818Z,100251.84
2023-01-23T21:01:31.479Z,100258.44
2023-01-23T21:03:58.427Z,100221.84
2023-01-23T21:06:25.352Z,100263.91
2023-01-23T21:08:52.276Z,100256.09
2023-01-23T21:11:20.689Z,100261.09
2023-01-23T21:13:53.741Z,100260.16
2023-01-23T21:16:20.840Z,100258.00
2023-01-23T21:18:47.954Z,100253.53
2023-01-23T21:21:18.114Z,100258.00
2023-01-23T21:23:49.029Z,100264.84
2023-01-23T21:26:22.609Z,100268.47
2023-01-23T21:28:51.051Z,100271.88
2023-01-23T21:31:21.445Z,100262.19
2023-01-23T21:33:48.550Z,100238.06
2023-01-23T21:36:19.540Z,100249.72
2023-01-23T21:38:47.255Z,100259.50
2023-01-23T21:41:14.554Z,100261.41
2023-01-23T21:43:41.547Z,100256.31
2023-01-23T21:46:08.726Z,100263.03
2023-01-23T21:48:35.952Z,100255.69
2023-01-23T21:51:16.906Z,100259.75
2023-01-23T21:53:46.330Z,100257.72
2023-01-23T21:56:15.879Z,100254.59
2023-01-23T21:58:43.241Z,100257.47
2023-01-23T22:01:33.925Z,100260.38
2023-01-23T22:04:12.520Z,100226.31
2023-01-23T22:06:42.516Z,100240.53
2023-01-23T22:09:14.041Z,100247.13
2023-01-23T22:11:41.150Z,100259.41
2023-01-23T22:14:08.077Z,100253.09
2023-01-23T22:16:47.944Z,100256.53
2023-01-23T22:19:18.208Z,100251.97
2023-01-23T22:21:46.918Z,100251.84
2023-01-23T22:24:15.253Z,100258.25
2023-01-23T22:26:42.572Z,100256.31
2023-01-23T22:29:11.023Z,100253.97
2023-01-23T22:31:38.005Z,100265.19
2023-01-23T22:34:05.067Z,100272.22
2023-01-23T22:36:33.486Z,100280.13
2023-01-23T22:39:00.454Z,100268.78
2023-01-23T22:41:28.800Z,100268.06
2023-01-23T22:44:01.158Z,100255.59
2023-01-23T22:46:29.318Z,100267.66
2023-01-23T22:48:56.350Z,100259.97
2023-01-23T22:51:27.817Z,100272.00
2023-01-23T22:53:56.310Z,100270.19
2023-01-23T22:56:24.654Z,100261.47
2023-01-23T22:58:55.230Z,100241.94
2023-01-23T23:01:23.756Z,100239.34
2023-01-23T23:03:50.816Z,100272.78
2023-01-23T23:06:18.056Z,100239.66
2023-01-23T23:08:47.725Z,100261.66
2023-01-23T23:11:18.643Z,100270.31
2023-01-23T23:13:46.609Z,100256.94
2023-01-23T23:16:18.228Z,100255.91
2023-01-23T23:18:47.271Z,100264.13
2023-01-23T23:21:16.387Z,100264.88
2023-01-23T23:23:44.124Z,100276.16
2023-01-23T23:26:12.496Z,100265.50
2023-01-23T23:28:40.262Z,100266.28
2023-01-23T23:31:09.030Z,100269.78
2023-01-23T23:33:36.758Z,100270.66
2023-01-23T23:36:03.878Z,100245.56
2023-01-23T23:38:30.805Z,100262.19
2023-01-23T23:41:00.045Z,100267.75
2023-01-23T23:43:27.756Z,100272.88
2023-01-23T23:45:57.539Z,100269.56
2023-01-23T23:48:25.322Z,100266.50
2023-01-23T23:50:52.899Z,100268.59
2023-01-23T23:53:20.021Z,100264.00
2023-01-23T23:55:47.558Z,100265.94
2023-01-23T23:58:15.561Z,100265.09
